Flight Track Log - Related Links

Times and Time Zones

All times are in EDT time to prevent confusion due to time zone crossing. See the FIN666 flight status page for this flight to view local times or setup timezone preferences in your user account.

Time Position Orientation Groundspeed Altitude Reporting Facility
EDT Latitude Longitude Course Direction KTS MPH feet Rate Location/Type
Tue 07:34:00 AM 55.8966 13.2332 49° Northeast  Level Estimated
Tue 07:35:00 AM 55.9658 13.3788 50° Northeast  Level Estimated
Tue 07:36:00 AM 56.0349 13.5249 50° Northeast  Level Estimated
Tue 07:37:00 AM 56.1076 13.6798 50° Northeast  Level Estimated
Tue 07:38:00 AM 56.1802 13.8353 50° Northeast  Level Estimated
Tue 07:39:00 AM 56.2526 13.9914 50° Northeast  Level Estimated
Tue 07:40:00 AM 56.3248 14.1481 50° Northeast  Level Estimated
Tue 07:41:00 AM 56.3967 14.3054 50° Northeast  Level Estimated
Tue 07:42:00 AM 56.4685 14.4633 51° Northeast  Level Estimated
Tue 07:43:00 AM 56.5401 14.6217 51° Northeast  Level Estimated
Tue 07:44:00 AM 56.6115 14.7808 51° Northeast  Level Estimated
Tue 07:45:00 AM 56.6827 14.9405 51° Northeast  Level Estimated
Tue 07:46:00 AM 56.7536 15.1008 51° Northeast  Level Estimated
Tue 07:47:00 AM 56.8244 15.2617 51° Northeast  Level Estimated
Tue 07:48:00 AM 56.8949 15.4231 51° Northeast  Level Estimated
Tue 07:49:00 AM 56.9653 15.5852 51° Northeast  Level Estimated
Tue 07:50:00 AM 57.0354 15.7480 52° Northeast  Level Estimated
Tue 07:51:00 AM 57.1053 15.9113 52° Northeast  Level Estimated
Tue 07:52:00 AM 57.1750 16.0752 52° Northeast  Level Estimated
Tue 07:53:00 AM 57.2445 16.2398 52° Northeast  Level Estimated
Tue 07:54:00 AM 57.3138 16.4050 52° Northeast  Level Estimated
Tue 07:55:00 AM 57.3829 16.5708 52° Northeast  Level Estimated
Tue 07:56:00 AM 57.4517 16.7372 52° Northeast  Level Estimated
Tue 07:57:00 AM 57.5204 16.9043 53° Northeast  Level Estimated
Tue 07:58:00 AM 57.5887 17.0720 53° Northeast  Level Estimated
Tue 07:59:00 AM 57.6569 17.2403 53° Northeast  Level Estimated
Tue 08:00:00 AM 57.7249 17.4092 53° Northeast  Level Estimated
Tue 08:01:00 AM 57.7926 17.5788 53° Northeast  Level Estimated
Tue 08:02:00 AM 57.8601 17.7490 53° Northeast  Level Estimated
Tue 08:03:00 AM 57.9274 17.9199 53° Northeast  Level Estimated
Tue 08:04:00 AM 57.9944 18.0914 54° Northeast  Level Estimated
Tue 08:05:00 AM 58.0612 18.2635 54° Northeast  Level Estimated
Tue 08:06:00 AM 58.1278 18.4363 54° Northeast  Level Estimated
Tue 08:07:00 AM 58.1942 18.6098 54° Northeast  Level Estimated
Tue 08:08:00 AM 58.2603 18.7838 54° Northeast  Level Estimated
Tue 08:09:00 AM 58.3261 18.9586 54° Northeast  Level Estimated
Tue 08:10:00 AM 58.3918 19.1339 54° Northeast  Level Estimated
Tue 08:11:00 AM 58.4572 19.3100 55° Northeast  Level Estimated
Tue 08:12:00 AM 58.5223 19.4867 55° Northeast  Level Estimated
Tue 08:13:00 AM 58.5872 19.6640 55° Northeast  Level Estimated
Tue 08:14:00 AM 58.6519 19.8420 55° Northeast  Level Estimated
Tue 08:15:00 AM 58.7163 20.0207 55° Northeast  Level Estimated
Tue 08:16:00 AM 58.7805 20.2000 55° Northeast  Level Estimated
Tue 08:17:00 AM 58.8444 20.3800 55° Northeast  Level Estimated
Tue 08:18:00 AM 58.9081 20.5606 56° Northeast  Level Estimated
Tue 08:19:00 AM 58.9773 20.7587 56° Northeast  Level Estimated
Tue 08:20:00 AM 59.0462 20.9576 56° Northeast  Level Estimated
Tue 08:21:00 AM 59.1149 21.1573 56° Northeast  Level Estimated
Tue 08:22:00 AM 59.1832 21.3577 56° Northeast  Level Estimated
Tue 08:23:00 AM 59.2513 21.5590 56° Northeast  Level Estimated
Tue 08:24:00 AM 59.3190 21.7611 57° Northeast  Level Estimated
Tue 08:25:00 AM 59.3864 21.9640 57° Northeast  Level Estimated
Tue 08:26:00 AM 59.4534 22.1677 57° Northeast  Level Estimated
Tue 08:27:00 AM 59.5202 22.3722 57° Northeast  Level Estimated
Tue 08:28:00 AM 59.5867 22.5775 57° Northeast  Level Estimated
Tue 08:29:00 AM 59.6528 22.7836 58° Northeast  Level Estimated
Tue 08:30:00 AM 59.7186 22.9906 58° Northeast  Level Estimated
Tue 08:31:00 AM 59.7840 23.1983 58° Northeast  Level Estimated
Tue 08:32:00 AM 59.8492 23.4069 58° Northeast  Level Estimated
Tue 08:33:00 AM 59.9140 23.6163 58° Northeast  Level Estimated
Tue 08:34:00 AM 59.9785 23.8265 58° Northeast  Level Estimated
Tue 08:35:00 AM 60.0426 24.0375 59° Northeast  Level Estimated
Tue 08:36:00 AM 60.1064 24.2493 59° Northeast  Level Estimated
Tue 08:37:00 AM 60.1699 24.4620 59° Northeast  Level Estimated
Tue 08:38:00 AM 60.2330 24.6754 59° Northeast  Level Estimated
Tue 08:39:00 AM 60.2958 24.8897 59° Northeast  Level Estimated
Tue 08:40:00 AM 60.3172 24.9633 60° Northeast  Level Estimated
Tue 08:41:00 AM 60.3172 24.9633 North  Level Estimated
Tue 08:42:00 AM 60.3172 24.9633 North  Level Estimated
Tue 08:43:00 AM 60.3172 24.9633 North  Level Estimated
Tue 08:44:00 AM 60.3172 24.9633 North  Level Estimated
Tue 08:45:00 AM 60.3172 24.9633 North  Level Estimated
Tue 08:46:00 AM 60.3172 24.9633 North  Level Estimated
Tue 08:47:00 AM 60.3172 24.9633 North  Level Estimated
Tue 08:48:00 AM 60.3172 24.9633 North  Level Estimated
Tue 08:49:00 AM 60.3172 24.9633 North  Level Estimated

Login

Don't have an account? Register now (free) for customized features, flight alerts, and more!